Aérodrome :
LOGIN :

S'inscrire | Disclaimer

   EN    FR    IT 

 










Légende :    VFR   VFR Marginal   IFR   IFR Intensif   IFR Très Intensif
Visi : 
Plafond : 
>= 8 km
>= 3000ft
5 à 8 km
1000 à 3000 ft
1500m à 5 km
500 à 1000 ft
800 à 1500m
200 à 500 ft
< 800m
< 200 ft
Symboles :   Orages  Brouillard  Fortes neiges  Fortes précipitations  Vent > 20 kt
SIGMETs :   Divers  Orages  Givrage  Turbulence  Onde Orograph.  Cendres Volcan.







- Altitude de l'aérodrome : 290 ft
- Code IATA : OSI


LDOS - Osijek

DERNIER METAR :
  • 211200Z 24005KT 200V280 5000 BR BKN003 OVC004 04/04 Q1016

METARs EXPIRÉS :
  • 211130Z 24004KT 210V280 5000 BR BKN003 OVC004 04/04 Q1016
  • 211100Z 23005KT 150V250 4000 BR BKN003 OVC004 04/04 Q1016
  • 211030Z 25005KT 220V280 2500 BR BKN003 OVC004 04/04 Q1016
  • 211000Z 25006KT 1500 BR BKN002 OVC003 04/04 Q1016
  • 210930Z 24006KT 0450 FG OVC002 04/04 Q1016

TAF TAF LDOS
Valide du 21 à 12h jusqu'au 22 à 12h UTC


211125Z 2112/2212 26005KT 4000 BR BKN003 OVC008 TX05/2113Z TN02/2202Z
PROB30 2112/2116 6000 NSW SCT005 OVC015
BECMG 2118/2121 0400 FG VV002
BECMG 2208/2210 1500 BR OVC003
Pas de NOTAMs connus pour ce terrain.



MET'MAP, la Météo Aéronautique d'un coup d'oeil ! - Copyright ORBIFLY Décembre 2007 - Disclaimer

ORBIFLY MET'MAP TEAM :

Programmation & Développement : Alexandra Zaïnal
Conception & Développement : Baudouin d'Aumeries
Co-Programmation & Développement : Marc-Olivier Méhu
Soutien technique & logistique : Manuel Goepfert

Contact : metmap@orbifly.com




SOURCES & CREDITS :

   NOAA